sensor_id;sensor_type;location;lat;lon;timestamp;temperature;humidity
3874;DHT22;1952;50.872;6.692;2023-01-15T00:30:40;9.50;1.00
3874;DHT22;1952;50.872;6.692;2023-01-15T00:33:09;9.50;1.00
3874;DHT22;1952;50.872;6.692;2023-01-15T00:35:37;9.60;1.00
3874;DHT22;1952;50.872;6.692;2023-01-15T00:48:13;9.40;1.00
3874;DHT22;1952;50.872;6.692;2023-01-15T00:50:41;9.50;1.00
3874;DHT22;1952;50.872;6.692;2023-01-15T00:55:43;9.90;1.00
3874;DHT22;1952;50.872;6.692;2023-01-15T00:58:11;9.50;99.90
3874;DHT22;1952;50.872;6.692;2023-01-15T01:00:38;9.40;1.00
3874;DHT22;1952;50.872;6.692;2023-01-15T01:03:13;9.20;99.90
3874;DHT22;1952;50.872;6.692;2023-01-15T01:05:40;9.10;1.00
3874;DHT22;1952;50.872;6.692;2023-01-15T01:08:14;9.20;1.00
3874;DHT22;1952;50.872;6.692;2023-01-15T01:13:11;9.20;1.00
3874;DHT22;1952;50.872;6.692;2023-01-15T01:18:13;9.30;1.00
3874;DHT22;1952;50.872;6.692;2023-01-15T01:20:41;9.30;1.00
3874;DHT22;1952;50.872;6.692;2023-01-15T01:35:46;10.00;99.90
3874;DHT22;1952;50.872;6.692;2023-01-15T01:43:22;9.70;99.90
3874;DHT22;1952;50.872;6.692;2023-01-15T01:53:27;9.70;1.00
3874;DHT22;1952;50.872;6.692;2023-01-15T01:55:57;9.60;1.00
3874;DHT22;1952;50.872;6.692;2023-01-15T02:03:36;9.60;99.90
3874;DHT22;1952;50.872;6.692;2023-01-15T02:06:07;9.60;99.90
3874;DHT22;1952;50.872;6.692;2023-01-15T02:13:49;9.50;1.00
3874;DHT22;1952;50.872;6.692;2023-01-15T02:21:41;9.50;1.00
3874;DHT22;1952;50.872;6.692;2023-01-15T02:24:17;9.60;99.90
3874;DHT22;1952;50.872;6.692;2023-01-15T02:32:16;9.40;99.90
3874;DHT22;1952;50.872;6.692;2023-01-15T02:39:55;9.70;99.90
3874;DHT22;1952;50.872;6.692;2023-01-15T02:42:30;9.70;1.00
3874;DHT22;1952;50.872;6.692;2023-01-15T02:45:08;9.50;99.90
3874;DHT22;1952;50.872;6.692;2023-01-15T02:57:56;9.50;1.00
3874;DHT22;1952;50.872;6.692;2023-01-15T03:02:58;9.50;91.80
3874;DHT22;1952;50.872;6.692;2023-01-15T03:18:41;9.50;1.00
3874;DHT22;1952;50.872;6.692;2023-01-15T03:21:28;9.70;1.00
3874;DHT22;1952;50.872;6.692;2023-01-15T03:29:05;9.80;1.00
3874;DHT22;1952;50.872;6.692;2023-01-15T03:41:58;9.60;99.90
3874;DHT22;1952;50.872;6.692;2023-01-15T03:44:37;9.70;99.90
3874;DHT22;1952;50.872;6.692;2023-01-15T03:52:19;9.20;1.00
3874;DHT22;1952;50.872;6.692;2023-01-15T03:55:02;9.50;1.00
3874;DHT22;1952;50.872;6.692;2023-01-15T04:00:19;9.30;99.90
3874;DHT22;1952;50.872;6.692;2023-01-15T04:03:04;9.20;1.00
3874;DHT22;1952;50.872;6.692;2023-01-15T05:01:09;9.90;1.00
3874;DHT22;1952;50.872;6.692;2023-01-15T05:10:36;9.70;99.90
3874;DHT22;1952;50.872;6.692;2023-01-15T05:22:13;9.40;99.90
3874;DHT22;1952;50.872;6.692;2023-01-15T09:19:58;8.90;54.50
3874;DHT22;1952;50.872;6.692;2023-01-15T09:22:26;8.70;99.90
3874;DHT22;1952;50.872;6.692;2023-01-15T09:34:57;9.30;1.00
3874;DHT22;1952;50.872;6.692;2023-01-15T09:42:42;11.80;99.90
3874;DHT22;1952;50.872;6.692;2023-01-15T09:45:17;12.70;99.90
3874;DHT22;1952;50.872;6.692;2023-01-15T09:48:00;12.70;99.90
3874;DHT22;1952;50.872;6.692;2023-01-15T09:50:43;12.80;99.90
3874;DHT22;1952;50.872;6.692;2023-01-15T09:56:26;13.60;99.90
3874;DHT22;1952;50.872;6.692;2023-01-15T09:59:06;14.00;99.90
3874;DHT22;1952;50.872;6.692;2023-01-15T10:01:38;14.80;99.90
3874;DHT22;1952;50.872;6.692;2023-01-15T10:04:17;14.40;99.20
3874;DHT22;1952;50.872;6.692;2023-01-15T10:07:08;14.00;96.30
3874;DHT22;1952;50.872;6.692;2023-01-15T10:12:14;14.40;91.80
3874;DHT22;1952;50.872;6.692;2023-01-15T10:15:09;14.20;83.90
3874;DHT22;1952;50.872;6.692;2023-01-15T10:17:47;14.70;76.00
3874;DHT22;1952;50.872;6.692;2023-01-15T10:20:57;14.50;74.70
3874;DHT22;1952;50.872;6.692;2023-01-15T10:23:34;14.30;71.40
3874;DHT22;1952;50.872;6.692;2023-01-15T10:26:12;13.70;64.30
3874;DHT22;1952;50.872;6.692;2023-01-15T10:28:57;13.30;65.30
3874;DHT22;1952;50.872;6.692;2023-01-15T10:31:45;13.30;58.20
3874;DHT22;1952;50.872;6.692;2023-01-15T10:37:39;13.80;57.70
3874;DHT22;1952;50.872;6.692;2023-01-15T10:40:24;13.60;53.50
3874;DHT22;1952;50.872;6.692;2023-01-15T10:42:59;13.50;52.40
3874;DHT22;1952;50.872;6.692;2023-01-15T10:45:31;13.30;52.30
3874;DHT22;1952;50.872;6.692;2023-01-15T10:48:05;13.70;54.60
3874;DHT22;1952;50.872;6.692;2023-01-15T10:53:10;13.10;44.50
3874;DHT22;1952;50.872;6.692;2023-01-15T10:55:44;13.60;50.40
3874;DHT22;1952;50.872;6.692;2023-01-15T10:58:28;14.10;47.40
3874;DHT22;1952;50.872;6.692;2023-01-15T11:01:09;13.80;38.30
3874;DHT22;1952;50.872;6.692;2023-01-15T11:03:44;14.70;40.20
3874;DHT22;1952;50.872;6.692;2023-01-15T11:06:19;14.70;33.50
3874;DHT22;1952;50.872;6.692;2023-01-15T11:08:54;11.80;30.40
3874;DHT22;1952;50.872;6.692;2023-01-15T11:11:44;14.00;28.80
3874;DHT22;1952;50.872;6.692;2023-01-15T11:14:37;13.80;27.00
3874;DHT22;1952;50.872;6.692;2023-01-15T11:17:24;14.70;28.90
3874;DHT22;1952;50.872;6.692;2023-01-15T11:20:25;14.60;26.80
3874;DHT22;1952;50.872;6.692;2023-01-15T11:23:06;13.60;23.20
3874;DHT22;1952;50.872;6.692;2023-01-15T11:25:35;13.30;23.50
3874;DHT22;1952;50.872;6.692;2023-01-15T11:28:06;13.50;28.00
3874;DHT22;1952;50.872;6.692;2023-01-15T11:30:41;14.10;28.10
3874;DHT22;1952;50.872;6.692;2023-01-15T11:33:21;14.50;26.00
3874;DHT22;1952;50.872;6.692;2023-01-15T11:35:56;14.40;20.10
3874;DHT22;1952;50.872;6.692;2023-01-15T11:38:41;14.60;21.60
3874;DHT22;1952;50.872;6.692;2023-01-15T11:41:20;14.80;21.30
3874;DHT22;1952;50.872;6.692;2023-01-15T11:43:57;13.30;18.20
3874;DHT22;1952;50.872;6.692;2023-01-15T11:46:53;12.90;19.80
3874;DHT22;1952;50.872;6.692;2023-01-15T11:49:49;11.60;27.40
3874;DHT22;1952;50.872;6.692;2023-01-15T11:52:36;11.20;64.30
3874;DHT22;1952;50.872;6.692;2023-01-15T12:33:47;11.40;36.20
3874;DHT22;1952;50.872;6.692;2023-01-15T12:36:20;12.10;43.90
3874;DHT22;1952;50.872;6.692;2023-01-15T12:38:56;12.60;30.20
3874;DHT22;1952;50.872;6.692;2023-01-15T12:41:32;12.90;25.20
3874;DHT22;1952;50.872;6.692;2023-01-15T12:44:24;13.20;21.50
3874;DHT22;1952;50.872;6.692;2023-01-15T12:47:15;13.90;22.00
3874;DHT22;1952;50.872;6.692;2023-01-15T12:49:56;13.80;17.50
3874;DHT22;1952;50.872;6.692;2023-01-15T12:52:34;13.10;14.10
3874;DHT22;1952;50.872;6.692;2023-01-15T12:55:13;13.10;14.80
3874;DHT22;1952;50.872;6.692;2023-01-15T12:57:49;13.30;13.10
3874;DHT22;1952;50.872;6.692;2023-01-15T13:00:19;13.40;11.90
3874;DHT22;1952;50.872;6.692;2023-01-15T13:02:59;13.60;14.40
3874;DHT22;1952;50.872;6.692;2023-01-15T13:05:35;13.60;13.30
3874;DHT22;1952;50.872;6.692;2023-01-15T13:08:13;14.30;12.70
3874;DHT22;1952;50.872;6.692;2023-01-15T13:13:15;14.20;4.60
3874;DHT22;1952;50.872;6.692;2023-01-15T13:15:54;13.70;5.20
3874;DHT22;1952;50.872;6.692;2023-01-15T13:18:32;13.30;4.50
3874;DHT22;1952;50.872;6.692;2023-01-15T13:21:12;12.90;2.00
3874;DHT22;1952;50.872;6.692;2023-01-15T13:24:18;13.30;6.00
3874;DHT22;1952;50.872;6.692;2023-01-15T13:26:59;13.40;6.30
3874;DHT22;1952;50.872;6.692;2023-01-15T13:29:38;13.10;4.20
3874;DHT22;1952;50.872;6.692;2023-01-15T13:32:13;12.80;3.90
3874;DHT22;1952;50.872;6.692;2023-01-15T13:34:50;13.00;6.70
3874;DHT22;1952;50.872;6.692;2023-01-15T13:37:25;12.90;3.10
3874;DHT22;1952;50.872;6.692;2023-01-15T13:40:05;12.20;1.00
3874;DHT22;1952;50.872;6.692;2023-01-15T13:42:37;12.60;5.40
3874;DHT22;1952;50.872;6.692;2023-01-15T13:45:20;12.60;5.60
3874;DHT22;1952;50.872;6.692;2023-01-15T13:47:55;12.30;2.90
3874;DHT22;1952;50.872;6.692;2023-01-15T13:50:28;11.40;1.00
3874;DHT22;1952;50.872;6.692;2023-01-15T13:53:05;11.30;8.70
3874;DHT22;1952;50.872;6.692;2023-01-15T13:55:35;11.10;9.50
3874;DHT22;1952;50.872;6.692;2023-01-15T13:58:19;11.40;20.90
3874;DHT22;1952;50.872;6.692;2023-01-15T14:01:03;11.40;17.40
3874;DHT22;1952;50.872;6.692;2023-01-15T14:03:35;11.20;13.90
3874;DHT22;1952;50.872;6.692;2023-01-15T14:06:06;11.00;14.60
3874;DHT22;1952;50.872;6.692;2023-01-15T14:08:43;11.00;24.50
3874;DHT22;1952;50.872;6.692;2023-01-15T14:11:35;10.80;28.70
3874;DHT22;1952;50.872;6.692;2023-01-15T14:14:35;10.80;26.90
3874;DHT22;1952;50.872;6.692;2023-01-15T14:17:24;10.50;22.00
3874;DHT22;1952;50.872;6.692;2023-01-15T14:20:09;10.60;32.50
3874;DHT22;1952;50.872;6.692;2023-01-15T14:22:56;10.80;53.70
3874;DHT22;1952;50.872;6.692;2023-01-15T14:25:39;10.80;42.90
3874;DHT22;1952;50.872;6.692;2023-01-15T14:28:46;10.50;37.10
3874;DHT22;1952;50.872;6.692;2023-01-15T14:31:26;10.40;47.80
3874;DHT22;1952;50.872;6.692;2023-01-15T14:34:16;10.40;39.30
3874;DHT22;1952;50.872;6.692;2023-01-15T14:36:53;10.30;41.10
3874;DHT22;1952;50.872;6.692;2023-01-15T14:39:31;10.00;47.50
3874;DHT22;1952;50.872;6.692;2023-01-15T14:42:10;10.50;91.20
3874;DHT22;1952;50.872;6.692;2023-01-15T14:45:01;10.40;47.30
3874;DHT22;1952;50.872;6.692;2023-01-15T14:47:44;10.50;47.80
3874;DHT22;1952;50.872;6.692;2023-01-15T14:50:28;10.20;54.40
3874;DHT22;1952;50.872;6.692;2023-01-15T14:53:03;10.20;56.50
3874;DHT22;1952;50.872;6.692;2023-01-15T14:55:42;10.00;70.60
3874;DHT22;1952;50.872;6.692;2023-01-15T14:58:24;10.00;93.50
3874;DHT22;1952;50.872;6.692;2023-01-15T15:01:00;10.10;99.80
3874;DHT22;1952;50.872;6.692;2023-01-15T15:03:33;10.30;84.50
3874;DHT22;1952;50.872;6.692;2023-01-15T15:06:10;10.30;79.30
3874;DHT22;1952;50.872;6.692;2023-01-15T15:08:40;10.10;86.20
3874;DHT22;1952;50.872;6.692;2023-01-15T15:11:15;9.90;99.90
3874;DHT22;1952;50.872;6.692;2023-01-15T15:14:01;9.80;99.90
3874;DHT22;1952;50.872;6.692;2023-01-15T16:59:53;9.20;99.90
3874;DHT22;1952;50.872;6.692;2023-01-15T17:37:32;9.60;99.90
